createdAt,value
2022-11-18T00:01:29.015Z,77.80
2022-11-18T00:03:55.478Z,77.70
2022-11-18T00:06:21.881Z,77.80
2022-11-18T00:08:48.289Z,77.80
2022-11-18T00:11:14.888Z,78.00
2022-11-18T00:13:41.311Z,77.80
2022-11-18T00:16:07.717Z,77.70
2022-11-18T00:18:34.146Z,77.90
2022-11-18T00:21:00.542Z,77.80
2022-11-18T00:23:26.941Z,78.40
2022-11-18T00:25:53.343Z,78.20
2022-11-18T00:28:19.760Z,78.10
2022-11-18T00:30:46.155Z,78.20
2022-11-18T00:33:12.578Z,79.20
2022-11-18T00:35:39.118Z,78.50
2022-11-18T00:38:05.533Z,78.30
2022-11-18T00:40:31.931Z,78.50
2022-11-18T00:42:58.322Z,78.50
2022-11-18T00:45:24.739Z,79.00
2022-11-18T00:47:51.125Z,78.20
2022-11-18T00:50:17.530Z,78.20
2022-11-18T00:52:43.924Z,78.20
2022-11-18T00:55:10.327Z,78.50
2022-11-18T00:57:36.724Z,78.30
2022-11-18T01:00:03.108Z,78.40
2022-11-18T01:02:29.500Z,78.20
2022-11-18T01:04:55.964Z,78.40
2022-11-18T01:07:22.444Z,78.40
2022-11-18T01:09:48.868Z,78.50
2022-11-18T01:12:15.364Z,78.60
2022-11-18T01:14:41.759Z,78.40
2022-11-18T01:17:08.163Z,78.20
2022-11-18T01:19:34.569Z,78.40
2022-11-18T01:22:00.950Z,78.40
2022-11-18T01:24:27.371Z,78.50
2022-11-18T01:26:53.763Z,78.30
2022-11-18T01:29:20.347Z,78.50
2022-11-18T01:32:16.881Z,78.30
2022-11-18T01:34:33.405Z,78.00
2022-11-18T01:36:59.838Z,77.90
2022-11-18T01:39:26.224Z,78.00
2022-11-18T01:41:52.816Z,77.40
2022-11-18T01:44:19.213Z,78.20
2022-11-18T01:46:45.630Z,78.10
2022-11-18T01:49:12.024Z,78.10
2022-11-18T01:51:38.440Z,78.60
2022-11-18T01:54:04.833Z,77.80
2022-11-18T01:56:31.234Z,78.50
2022-11-18T01:58:57.613Z,77.90
2022-11-18T02:01:24.140Z,77.80
2022-11-18T02:03:50.556Z,78.00
2022-11-18T02:06:16.973Z,78.20
2022-11-18T02:08:43.368Z,78.20
2022-11-18T02:11:09.778Z,78.70
2022-11-18T02:13:36.384Z,77.90
2022-11-18T02:16:02.805Z,78.40
2022-11-18T02:18:29.201Z,77.80
2022-11-18T02:20:55.625Z,78.30
2022-11-18T02:23:22.016Z,78.40
2022-11-18T02:25:48.405Z,78.10
2022-11-18T02:28:14.795Z,78.20
2022-11-18T02:30:41.209Z,78.30
2022-11-18T02:33:07.610Z,78.10
2022-11-18T02:35:33.999Z,78.20
2022-11-18T02:38:00.587Z,78.30
2022-11-18T02:40:26.992Z,78.30
2022-11-18T02:42:53.592Z,78.10
2022-11-18T02:45:19.980Z,78.10
2022-11-18T02:47:46.395Z,78.60
2022-11-18T02:50:12.886Z,78.50
2022-11-18T02:52:39.283Z,78.20
2022-11-18T02:55:05.704Z,78.50
2022-11-18T02:57:32.109Z,78.30
2022-11-18T02:59:58.488Z,78.10
2022-11-18T03:02:27.272Z,78.10
2022-11-18T03:04:53.667Z,78.10
2022-11-18T03:07:20.122Z,78.30
2022-11-18T03:09:46.668Z,78.10
2022-11-18T03:12:13.078Z,78.30
2022-11-18T03:14:39.471Z,77.40
2022-11-18T03:17:05.870Z,78.40
2022-11-18T03:19:32.249Z,78.30
2022-11-18T03:21:58.665Z,78.20
2022-11-18T03:24:25.050Z,77.90
2022-11-18T03:26:51.459Z,78.30
2022-11-18T03:29:18.104Z,77.90
2022-11-18T03:31:44.657Z,78.10
2022-11-18T03:34:11.058Z,78.10
2022-11-18T03:36:37.483Z,78.20
2022-11-18T03:39:03.892Z,78.10
2022-11-18T03:41:30.306Z,78.10
2022-11-18T03:43:56.725Z,78.20
2022-11-18T03:46:23.144Z,78.20
2022-11-18T03:48:49.637Z,78.30
2022-11-18T03:51:18.392Z,78.00
2022-11-18T03:53:44.789Z,78.30
2022-11-18T03:56:17.003Z,78.30
2022-11-18T03:58:43.914Z,78.40
2022-11-18T04:01:10.316Z,78.40
2022-11-18T04:03:36.722Z,78.60
2022-11-18T04:06:03.117Z,78.30
2022-11-18T04:08:29.536Z,78.50
2022-11-18T04:10:56.081Z,78.30
2022-11-18T04:13:22.486Z,78.70
2022-11-18T04:15:48.888Z,78.60
2022-11-18T04:18:15.325Z,78.70
2022-11-18T04:20:41.728Z,78.60
2022-11-18T04:23:08.166Z,78.50
2022-11-18T04:25:34.545Z,78.70
2022-11-18T04:28:00.946Z,78.50
2022-11-18T04:30:27.441Z,78.40
2022-11-18T04:32:53.934Z,78.60
2022-11-18T04:35:20.341Z,79.00
2022-11-18T04:37:46.722Z,78.70
2022-11-18T04:40:13.104Z,78.50
2022-11-18T04:42:39.512Z,78.60
2022-11-18T04:45:05.938Z,78.50
2022-11-18T04:47:32.368Z,78.70
2022-11-18T04:49:58.766Z,78.40
2022-11-18T04:52:25.165Z,78.40
2022-11-18T04:54:51.601Z,78.40
2022-11-18T04:57:18.054Z,78.30
2022-11-18T04:59:44.451Z,78.30
2022-11-18T05:02:10.850Z,78.20
2022-11-18T05:04:37.236Z,78.40
2022-11-18T05:07:03.677Z,78.20
2022-11-18T05:09:32.127Z,78.40
2022-11-18T05:11:58.914Z,78.60
2022-11-18T05:14:25.339Z,78.40
2022-11-18T05:16:51.744Z,78.40
2022-11-18T05:19:18.286Z,78.50
2022-11-18T05:21:44.874Z,77.70
2022-11-18T05:24:11.307Z,78.40
2022-11-18T05:26:37.735Z,78.60
2022-11-18T05:29:04.126Z,79.00
2022-11-18T05:31:30.519Z,78.60
2022-11-18T05:33:56.916Z,78.50
2022-11-18T05:36:23.317Z,78.50
2022-11-18T05:38:49.738Z,78.40
2022-11-18T05:41:16.145Z,78.50
2022-11-18T05:43:42.538Z,78.80
2022-11-18T05:46:08.955Z,79.40
2022-11-18T05:48:35.569Z,78.80
2022-11-18T05:51:01.977Z,78.50
2022-11-18T05:53:28.471Z,78.30
2022-11-18T05:55:54.867Z,78.60
2022-11-18T05:58:21.260Z,78.50
2022-11-18T06:00:47.668Z,79.60
2022-11-18T06:03:14.325Z,78.50
2022-11-18T06:05:40.803Z,78.30
2022-11-18T06:08:07.189Z,78.50
2022-11-18T06:10:33.629Z,78.60
2022-11-18T06:13:00.022Z,79.10
2022-11-18T06:15:26.428Z,78.70
2022-11-18T06:17:52.814Z,78.50
2022-11-18T06:20:19.219Z,79.00
2022-11-18T06:22:46.816Z,78.50
2022-11-18T06:25:13.315Z,78.30
2022-11-18T06:27:39.713Z,78.30
2022-11-18T06:30:06.157Z,79.60
2022-11-18T06:32:32.544Z,78.40
2022-11-18T06:34:58.962Z,78.50
2022-11-18T06:37:25.463Z,78.30
2022-11-18T06:39:51.875Z,78.30
2022-11-18T06:42:18.264Z,78.50
2022-11-18T06:44:44.732Z,78.50
2022-11-18T06:47:11.174Z,78.70
2022-11-18T06:49:37.573Z,78.70
2022-11-18T06:52:03.972Z,78.70
2022-11-18T06:54:30.432Z,78.90
2022-11-18T06:56:56.829Z,78.50
2022-11-18T06:59:23.215Z,78.10
2022-11-18T07:01:49.627Z,78.60
2022-11-18T07:04:16.173Z,78.60
2022-11-18T07:06:42.573Z,78.90
2022-11-18T07:09:09.050Z,78.90
2022-11-18T07:11:35.483Z,79.40
2022-11-18T07:14:01.984Z,78.80
2022-11-18T07:16:28.392Z,78.90
2022-11-18T07:18:54.774Z,78.40
2022-11-18T07:21:21.176Z,78.50
2022-11-18T07:23:47.649Z,78.60
2022-11-18T07:26:14.047Z,78.50
2022-11-18T07:28:40.448Z,79.40
2022-11-18T07:31:06.851Z,77.90
2022-11-18T07:33:33.245Z,78.80
2022-11-18T07:35:59.822Z,78.70
2022-11-18T07:38:26.223Z,78.70
2022-11-18T07:40:52.804Z,78.60
2022-11-18T07:43:19.197Z,78.60
2022-11-18T07:45:45.601Z,78.60
2022-11-18T07:48:12.001Z,78.80
2022-11-18T07:50:41.943Z,78.80
2022-11-18T07:53:10.776Z,78.60
2022-11-18T07:55:37.179Z,78.50
2022-11-18T07:58:03.573Z,78.40
2022-11-18T08:00:29.981Z,78.70
2022-11-18T08:02:56.371Z,78.50
2022-11-18T08:05:23.117Z,78.60
2022-11-18T08:07:49.689Z,78.50
2022-11-18T08:10:16.105Z,78.80
2022-11-18T08:12:42.537Z,78.60
2022-11-18T08:15:08.927Z,78.70
2022-11-18T08:17:35.315Z,78.70
2022-11-18T08:20:01.689Z,78.50
2022-11-18T08:22:28.093Z,78.60
2022-11-18T08:24:54.497Z,78.70
2022-11-18T08:27:20.899Z,79.20
2022-11-18T08:29:47.314Z,78.80
2022-11-18T08:32:13.712Z,78.50
2022-11-18T08:34:40.117Z,78.70
2022-11-18T08:37:06.529Z,78.70
2022-11-18T08:39:32.932Z,78.80
2022-11-18T08:41:59.324Z,79.10
2022-11-18T08:44:25.727Z,78.90
2022-11-18T08:46:52.128Z,79.20
2022-11-18T08:49:18.673Z,78.90
2022-11-18T08:51:45.205Z,79.10
2022-11-18T08:54:11.593Z,78.90
2022-11-18T08:56:38.120Z,79.10
2022-11-18T08:59:04.529Z,79.30
2022-11-18T09:01:30.952Z,79.10
2022-11-18T09:03:57.430Z,79.00
2022-11-18T09:06:23.946Z,80.10
2022-11-18T09:08:50.338Z,78.90
2022-11-18T09:11:16.840Z,78.80
2022-11-18T09:14:14.307Z,78.90
2022-11-18T09:16:29.620Z,78.90
2022-11-18T09:18:56.030Z,78.80
2022-11-18T09:21:22.447Z,78.80
2022-11-18T09:23:48.871Z,78.70
2022-11-18T09:26:15.294Z,78.60
2022-11-18T09:28:41.697Z,78.90
2022-11-18T09:31:08.131Z,78.90
2022-11-18T09:33:34.573Z,78.70
2022-11-18T09:36:01.044Z,79.10
2022-11-18T09:38:27.439Z,77.80
2022-11-18T09:40:53.900Z,78.60
2022-11-18T09:43:20.300Z,78.60
2022-11-18T09:45:46.701Z,78.90
2022-11-18T09:48:13.118Z,78.90
2022-11-18T09:50:49.795Z,78.80
2022-11-18T09:53:16.957Z,79.10
2022-11-18T09:55:43.377Z,78.90
2022-11-18T09:58:09.779Z,78.90
2022-11-18T10:00:36.186Z,78.90
2022-11-18T10:03:02.588Z,78.70
2022-11-18T10:05:29.018Z,78.50
2022-11-18T10:07:55.430Z,78.90
2022-11-18T10:10:21.821Z,78.50
2022-11-18T10:12:48.205Z,78.50
2022-11-18T10:15:14.613Z,78.90
2022-11-18T10:17:41.025Z,78.90
2022-11-18T10:20:07.497Z,78.70
2022-11-18T10:22:33.909Z,78.70
2022-11-18T10:25:00.302Z,78.40
2022-11-18T10:27:26.692Z,78.60
2022-11-18T10:29:53.288Z,79.10
2022-11-18T10:32:19.712Z,78.70
2022-11-18T10:34:46.098Z,78.80
2022-11-18T10:37:12.492Z,78.90
2022-11-18T10:39:38.962Z,78.40
2022-11-18T10:42:05.358Z,78.70
2022-11-18T10:44:31.760Z,78.60
2022-11-18T10:46:58.175Z,78.50
2022-11-18T10:49:24.580Z,78.40
2022-11-18T10:51:50.983Z,78.60
2022-11-18T10:54:17.646Z,78.50
2022-11-18T10:56:44.231Z,78.50
2022-11-18T10:59:10.640Z,78.30
2022-11-18T11:01:37.127Z,78.40
2022-11-18T11:04:03.568Z,78.50
2022-11-18T11:06:30.019Z,78.80
2022-11-18T11:08:56.425Z,78.30
2022-11-18T11:11:22.823Z,78.80
2022-11-18T11:13:49.221Z,78.80
2022-11-18T11:16:15.638Z,78.80
2022-11-18T11:18:42.116Z,78.60
2022-11-18T11:21:08.536Z,78.60
2022-11-18T11:23:34.994Z,78.50
2022-11-18T11:28:49.242Z,77.70
2022-11-18T11:31:15.661Z,78.40
2022-11-18T11:33:42.069Z,78.50
2022-11-18T11:36:08.481Z,78.70
2022-11-18T11:38:34.890Z,78.50
2022-11-18T11:41:01.293Z,78.70
2022-11-18T11:43:27.757Z,78.50
2022-11-18T11:45:54.160Z,79.00
2022-11-18T11:48:20.604Z,78.70
2022-11-18T11:50:54.755Z,78.90
2022-11-18T11:53:23.735Z,78.80
2022-11-18T11:55:50.140Z,79.00
2022-11-18T11:58:16.539Z,77.80
2022-11-18T12:00:42.922Z,79.00
2022-11-18T12:03:09.354Z,79.30
2022-11-18T12:05:35.754Z,78.90
2022-11-18T12:08:02.170Z,79.60
2022-11-18T12:10:28.700Z,78.90
2022-11-18T12:12:55.100Z,78.70
2022-11-18T12:15:21.496Z,78.80
2022-11-18T12:17:47.897Z,79.30
2022-11-18T12:20:14.306Z,79.40
2022-11-18T12:22:40.694Z,78.90
2022-11-18T12:25:07.096Z,79.10
2022-11-18T12:27:33.493Z,79.80
2022-11-18T12:29:59.899Z,78.80
2022-11-18T12:32:26.330Z,78.70
2022-11-18T12:34:52.773Z,79.40
2022-11-18T12:37:19.210Z,71.40
2022-11-18T12:39:45.602Z,69.30
2022-11-18T12:42:12.064Z,68.20
2022-11-18T12:44:38.488Z,63.90
2022-11-18T12:47:04.902Z,61.10
2022-11-18T12:49:31.315Z,63.70
2022-11-18T12:51:57.715Z,63.20
2022-11-18T12:54:24.126Z,62.40
2022-11-18T12:56:50.525Z,62.80
2022-11-18T12:59:17.194Z,61.70
2022-11-18T13:01:43.896Z,62.60
2022-11-18T13:04:10.288Z,63.70
2022-11-18T13:06:36.693Z,61.80
2022-11-18T13:09:03.083Z,60.40
2022-11-18T13:11:29.526Z,59.40
2022-11-18T13:13:56.035Z,59.20
2022-11-18T13:16:22.640Z,62.10
2022-11-18T13:18:49.075Z,60.10
2022-11-18T13:21:15.470Z,60.50
2022-11-18T13:23:41.863Z,59.80
2022-11-18T13:26:08.255Z,61.00
2022-11-18T13:28:34.661Z,57.10
2022-11-18T13:31:01.284Z,59.70
2022-11-18T13:33:27.877Z,58.90
2022-11-18T13:35:54.342Z,57.40
2022-11-18T13:38:26.151Z,59.50
2022-11-18T13:40:54.302Z,58.00
2022-11-18T13:43:20.701Z,60.40
2022-11-18T13:45:47.095Z,58.90
2022-11-18T13:48:13.507Z,60.70
2022-11-18T13:50:39.906Z,60.80
2022-11-18T13:53:06.351Z,58.20
2022-11-18T13:55:32.951Z,57.90
2022-11-18T13:57:59.384Z,57.90
2022-11-18T14:00:25.865Z,59.50
2022-11-18T14:02:52.302Z,58.60
2022-11-18T14:05:21.442Z,59.90
2022-11-18T14:07:48.352Z,57.10
2022-11-18T14:10:14.807Z,59.20
2022-11-18T14:12:41.354Z,60.40
2022-11-18T14:15:07.752Z,58.00
2022-11-18T14:17:34.165Z,59.30
2022-11-18T14:20:00.569Z,59.50
2022-11-18T14:22:26.972Z,59.90
2022-11-18T14:24:53.377Z,56.80
2022-11-18T14:27:19.780Z,56.20
2022-11-18T14:29:46.171Z,55.20
2022-11-18T14:32:12.577Z,57.90
2022-11-18T14:34:39.013Z,58.20
2022-11-18T14:37:05.410Z,58.90
2022-11-18T14:39:32.193Z,57.70
2022-11-18T14:41:58.684Z,59.20
2022-11-18T14:44:25.097Z,56.70
2022-11-18T14:46:51.504Z,57.90
2022-11-18T14:49:18.252Z,57.40
2022-11-18T14:51:45.233Z,58.90
2022-11-18T14:54:11.652Z,58.90
2022-11-18T14:56:38.246Z,59.90
2022-11-18T14:59:04.641Z,59.40
2022-11-18T15:01:31.360Z,59.90
2022-11-18T15:03:57.839Z,59.60
2022-11-18T15:06:24.221Z,58.10
2022-11-18T15:08:50.624Z,57.90
2022-11-18T15:11:17.005Z,59.10
2022-11-18T15:13:43.406Z,59.30
2022-11-18T15:16:09.795Z,59.50
2022-11-18T15:18:36.370Z,59.50
2022-11-18T15:21:02.959Z,59.90
2022-11-18T15:23:29.997Z,59.80
2022-11-18T15:25:56.463Z,59.90
2022-11-18T15:28:22.913Z,59.50
2022-11-18T15:30:49.509Z,59.20
2022-11-18T15:33:15.917Z,59.60
2022-11-18T15:35:42.350Z,59.20
2022-11-18T15:38:08.754Z,60.40
2022-11-18T15:40:35.138Z,59.90
2022-11-18T15:43:01.546Z,59.70
2022-11-18T15:45:27.941Z,59.40
2022-11-18T15:47:54.350Z,59.80
2022-11-18T15:50:20.748Z,60.50
2022-11-18T15:52:47.137Z,59.00
2022-11-18T15:55:13.553Z,59.90
2022-11-18T15:57:40.161Z,59.50
2022-11-18T16:00:06.569Z,60.00
2022-11-18T16:02:33.001Z,59.80
2022-11-18T16:04:59.388Z,59.50
2022-11-18T16:07:25.836Z,59.00
2022-11-18T16:09:52.417Z,59.60
2022-11-18T16:12:18.801Z,59.50
2022-11-18T16:14:45.204Z,59.90
2022-11-18T16:17:11.636Z,60.10
2022-11-18T16:19:38.033Z,59.90
2022-11-18T16:22:04.529Z,60.30
2022-11-18T16:24:30.923Z,60.00
2022-11-18T16:26:57.333Z,60.20
2022-11-18T16:32:10.120Z,60.70
2022-11-18T16:34:36.526Z,60.50
2022-11-18T16:37:02.914Z,61.20
2022-11-18T16:39:29.305Z,60.80
2022-11-18T16:40:28.282Z,60.10
2022-11-18T16:41:55.764Z,61.40
2022-11-18T16:44:22.339Z,61.90
2022-11-18T16:46:48.769Z,61.80
2022-11-18T16:49:15.215Z,62.50
2022-11-18T16:51:41.632Z,61.00
2022-11-18T16:54:08.090Z,62.00
2022-11-18T16:56:34.521Z,61.30
2022-11-18T16:59:00.942Z,61.00
2022-11-18T17:01:29.542Z,62.10
2022-11-18T17:03:56.346Z,61.60
2022-11-18T17:06:22.941Z,61.20
2022-11-18T17:08:49.459Z,61.60
2022-11-18T17:11:15.843Z,61.30
2022-11-18T17:13:42.248Z,61.20
2022-11-18T17:16:08.692Z,61.00
2022-11-18T17:18:35.087Z,60.70
2022-11-18T17:21:01.468Z,61.40
2022-11-18T17:23:27.879Z,63.20
2022-11-18T17:25:54.265Z,62.10
2022-11-18T17:28:20.666Z,61.60
2022-11-18T17:30:50.030Z,61.20
2022-11-18T17:33:18.448Z,61.70
2022-11-18T17:35:44.841Z,62.00
2022-11-18T17:38:11.245Z,62.70
2022-11-18T17:40:37.645Z,62.90
2022-11-18T17:43:04.052Z,63.90
2022-11-18T17:45:30.464Z,62.80
2022-11-18T17:47:56.861Z,63.10
2022-11-18T17:50:23.253Z,63.80
2022-11-18T17:52:49.661Z,64.10
2022-11-18T17:55:16.065Z,64.20
2022-11-18T17:57:42.470Z,64.70
2022-11-18T18:00:08.864Z,65.10
2022-11-18T18:02:35.249Z,64.80
2022-11-18T18:05:01.686Z,65.10
2022-11-18T18:07:28.329Z,65.30
2022-11-18T18:09:54.763Z,65.60
2022-11-18T18:12:21.180Z,65.50
2022-11-18T18:14:47.597Z,65.70
2022-11-18T18:17:13.982Z,65.90
2022-11-18T18:19:40.394Z,65.70
2022-11-18T18:22:07.004Z,66.30
2022-11-18T18:24:33.420Z,66.50
2022-11-18T18:26:59.922Z,66.60
2022-11-18T18:29:26.345Z,66.70
2022-11-18T18:31:52.753Z,67.10
2022-11-18T18:34:19.400Z,67.00
2022-11-18T18:36:45.941Z,67.30
2022-11-18T18:39:12.341Z,67.40
2022-11-18T18:41:38.745Z,67.40
2022-11-18T18:44:05.175Z,67.60
2022-11-18T18:46:31.574Z,67.70
2022-11-18T18:48:57.990Z,67.70
2022-11-18T18:51:24.409Z,67.60
2022-11-18T18:53:50.817Z,67.90
2022-11-18T18:56:17.405Z,68.00
2022-11-18T18:58:43.796Z,68.00
2022-11-18T19:01:10.247Z,68.20
2022-11-18T19:03:36.778Z,68.40
2022-11-18T19:06:41.506Z,68.50
2022-11-18T19:08:49.764Z,68.50
2022-11-18T19:11:16.428Z,68.20
2022-11-18T19:13:42.864Z,68.10
2022-11-18T19:16:09.445Z,68.50
2022-11-18T19:18:36.859Z,68.30
2022-11-18T19:21:03.449Z,68.70
2022-11-18T19:23:29.848Z,68.70
2022-11-18T19:25:56.322Z,68.70
2022-11-18T19:28:22.901Z,69.00
2022-11-18T19:30:49.315Z,69.10
2022-11-18T19:33:15.697Z,68.90
2022-11-18T19:35:42.105Z,69.10
2022-11-18T19:38:08.497Z,69.20
2022-11-18T19:40:34.903Z,69.60
2022-11-18T19:43:01.305Z,69.70
2022-11-18T19:45:27.723Z,69.80
2022-11-18T19:47:54.116Z,69.50
2022-11-18T19:50:20.528Z,69.40
2022-11-18T19:52:46.922Z,69.50
2022-11-18T19:55:13.345Z,69.50
2022-11-18T19:57:39.747Z,69.80
2022-11-18T20:00:06.140Z,70.50
2022-11-18T20:02:32.538Z,69.80
2022-11-18T20:04:58.928Z,69.90
2022-11-18T20:07:25.375Z,69.70
2022-11-18T20:09:51.801Z,68.90
2022-11-18T20:12:18.186Z,69.00
2022-11-18T20:14:44.603Z,70.10
2022-11-18T20:17:10.983Z,69.80
2022-11-18T20:19:37.379Z,69.80
2022-11-18T20:22:03.752Z,68.90
2022-11-18T20:24:30.157Z,69.90
2022-11-18T20:26:56.551Z,70.00
2022-11-18T20:29:22.943Z,69.90
2022-11-18T20:31:49.357Z,70.40
2022-11-18T20:34:15.735Z,70.30
2022-11-18T20:36:42.117Z,70.50
2022-11-18T20:39:08.513Z,70.50
2022-11-18T20:41:34.918Z,70.50
2022-11-18T20:44:01.341Z,70.70
2022-11-18T20:46:27.828Z,70.50
2022-11-18T20:48:54.232Z,70.20
2022-11-18T20:51:20.642Z,70.50
2022-11-18T20:53:47.121Z,70.30
2022-11-18T20:56:13.566Z,69.70
2022-11-18T20:58:39.991Z,71.00
2022-11-18T21:01:06.496Z,70.90
2022-11-18T21:03:32.898Z,70.50
2022-11-18T21:05:59.299Z,70.60
2022-11-18T21:08:25.673Z,70.60
2022-11-18T21:10:52.081Z,70.70
2022-11-18T21:13:18.497Z,70.70
2022-11-18T21:15:44.909Z,70.80
2022-11-18T21:18:11.295Z,71.00
2022-11-18T21:20:37.728Z,71.30
2022-11-18T21:23:04.140Z,71.90
2022-11-18T21:25:30.573Z,71.30
2022-11-18T21:27:57.045Z,71.30
2022-11-18T21:30:23.462Z,71.50
2022-11-18T21:32:50.053Z,71.60
2022-11-18T21:35:16.445Z,71.70
2022-11-18T21:37:42.852Z,71.60
2022-11-18T21:40:09.271Z,71.90
2022-11-18T21:42:35.651Z,71.70
2022-11-18T21:45:02.055Z,71.90
2022-11-18T21:47:28.436Z,71.70
2022-11-18T21:49:54.834Z,72.10
2022-11-18T21:52:21.251Z,72.00
2022-11-18T21:54:47.640Z,71.80
2022-11-18T21:57:14.031Z,71.50
2022-11-18T21:59:40.434Z,71.40
2022-11-18T22:02:06.823Z,71.40
2022-11-18T22:04:33.219Z,71.50
2022-11-18T22:06:59.693Z,71.40
2022-11-18T22:09:28.188Z,71.40
2022-11-18T22:11:56.606Z,71.50
2022-11-18T22:14:22.999Z,71.70
2022-11-18T22:16:49.385Z,71.80
2022-11-18T22:19:15.773Z,71.70
2022-11-18T22:21:42.161Z,71.80
2022-11-18T22:24:08.547Z,71.70
2022-11-18T22:26:34.933Z,71.80
2022-11-18T22:29:01.327Z,71.80
2022-11-18T22:31:27.718Z,72.00
2022-11-18T22:33:54.118Z,72.30
2022-11-18T22:36:20.576Z,72.30
2022-11-18T22:38:46.963Z,72.50
2022-11-18T22:41:13.355Z,72.10
2022-11-18T22:43:39.744Z,72.40
2022-11-18T22:46:06.125Z,72.40
2022-11-18T22:48:32.518Z,72.60
2022-11-18T22:50:58.913Z,72.50
2022-11-18T22:53:25.283Z,72.70
2022-11-18T22:55:51.672Z,72.60
2022-11-18T22:58:18.043Z,72.70
2022-11-18T23:00:44.433Z,72.60
2022-11-18T23:03:10.809Z,72.90
2022-11-18T23:05:37.211Z,72.90
2022-11-18T23:08:03.658Z,72.80
2022-11-18T23:10:30.086Z,73.00
2022-11-18T23:12:56.478Z,72.70
2022-11-18T23:15:22.892Z,72.70
2022-11-18T23:17:49.285Z,72.60
2022-11-18T23:20:15.667Z,72.70
2022-11-18T23:22:42.051Z,72.70
2022-11-18T23:25:08.463Z,72.70
2022-11-18T23:27:34.868Z,72.70
2022-11-18T23:30:01.273Z,72.40
2022-11-18T23:32:27.669Z,72.40
2022-11-18T23:34:54.178Z,72.50
2022-11-18T23:37:20.566Z,72.40
2022-11-18T23:39:46.956Z,72.40
2022-11-18T23:42:13.345Z,72.40
2022-11-18T23:44:39.749Z,72.30
2022-11-18T23:47:06.136Z,72.40
2022-11-18T23:49:32.546Z,72.60
2022-11-18T23:51:58.950Z,72.70
2022-11-18T23:54:25.340Z,72.40
2022-11-18T23:56:51.736Z,72.60
2022-11-18T23:59:18.335Z,72.30
